createdAt,value
2023-11-01T00:02:01.592Z,95885.16
2023-11-01T00:04:28.369Z,95885.16
2023-11-01T00:06:55.016Z,95894.72
2023-11-01T00:09:21.693Z,95894.13
2023-11-01T00:11:48.341Z,95888.44
2023-11-01T00:14:15.044Z,95895.31
2023-11-01T00:16:41.729Z,95894.94
2023-11-01T00:19:08.760Z,95891.81
2023-11-01T00:21:35.865Z,95897.88
2023-11-01T00:24:02.536Z,95897.22
2023-11-01T00:26:29.322Z,95896.06
2023-11-01T00:28:56.026Z,95897.47
2023-11-01T00:31:22.914Z,95898.00
2023-11-01T00:33:49.622Z,95900.81
2023-11-01T00:36:16.361Z,95896.06
2023-11-01T00:38:43.300Z,95906.78
2023-11-01T00:41:10.016Z,95904.28
2023-11-01T00:43:36.734Z,95896.63
2023-11-01T00:46:03.649Z,95901.84
2023-11-01T00:48:30.384Z,95910.38
2023-11-01T00:50:57.011Z,95915.75
2023-11-01T00:53:23.657Z,95907.53
2023-11-01T00:55:50.320Z,95903.75
2023-11-01T01:00:43.716Z,95897.13
2023-11-01T01:03:11.947Z,95897.56
2023-11-01T01:05:38.813Z,95893.47
2023-11-01T01:08:05.628Z,95897.13
2023-11-01T01:10:32.783Z,95892.44
2023-11-01T01:12:59.925Z,95894.84
2023-11-01T01:15:26.956Z,95886.31
2023-11-01T01:17:54.342Z,95880.66
2023-11-01T01:20:21.147Z,95874.41
2023-11-01T01:22:48.326Z,95876.00
2023-11-01T01:25:15.122Z,95869.16
2023-11-01T01:27:42.552Z,95875.66
2023-11-01T01:30:10.198Z,95867.72
2023-11-01T01:32:37.109Z,95866.13
2023-11-01T01:35:04.151Z,95871.06
2023-11-01T01:37:30.909Z,95870.69
2023-11-01T01:39:57.548Z,95870.50
2023-11-01T01:42:25.184Z,95874.63
2023-11-01T01:44:52.271Z,95870.56
2023-11-01T01:47:20.203Z,95868.41
2023-11-01T01:49:47.244Z,95870.03
2023-11-01T01:52:14.790Z,95860.16
2023-11-01T01:54:42.014Z,95854.75
2023-11-01T01:57:10.996Z,95854.81
2023-11-01T01:59:38.113Z,95862.75
2023-11-01T02:02:05.581Z,95859.28
2023-11-01T02:04:32.445Z,95862.97
2023-11-01T02:07:00.065Z,95846.97
2023-11-01T02:09:26.792Z,95850.78
2023-11-01T02:11:53.606Z,95854.25
2023-11-01T02:14:22.588Z,95855.72
2023-11-01T02:16:51.673Z,95845.88
2023-11-01T02:19:18.477Z,95854.75
2023-11-01T02:21:45.485Z,95859.19
2023-11-01T02:24:12.191Z,95858.63
2023-11-01T02:26:38.883Z,95858.56
2023-11-01T02:29:06.443Z,95850.03
2023-11-01T02:31:33.347Z,95854.31
2023-11-01T02:34:00.217Z,95857.06
2023-11-01T02:36:26.903Z,95850.75
2023-11-01T02:38:53.689Z,95854.50
2023-11-01T02:41:20.416Z,95852.34
2023-11-01T02:43:47.089Z,95852.56
2023-11-01T02:46:13.776Z,95850.13
2023-11-01T02:48:40.446Z,95852.28
2023-11-01T02:51:07.163Z,95856.00
2023-11-01T02:53:33.802Z,95859.75
2023-11-01T02:56:01.013Z,95862.56
2023-11-01T02:58:29.800Z,95855.38
2023-11-01T03:00:56.571Z,95852.22
2023-11-01T03:03:23.385Z,95854.34
2023-11-01T03:05:50.765Z,95853.88
2023-11-01T03:08:17.404Z,95848.84
2023-11-01T03:10:44.325Z,95853.41
2023-11-01T03:13:10.979Z,95852.63
2023-11-01T03:15:38.513Z,95856.34
2023-11-01T03:18:06.151Z,95852.63
2023-11-01T03:20:34.675Z,95849.69
2023-11-01T03:23:02.352Z,95854.50
2023-11-01T03:25:29.450Z,95848.66
2023-11-01T03:27:56.289Z,95844.16
2023-11-01T03:30:25.756Z,95843.91
2023-11-01T03:32:52.663Z,95840.97
2023-11-01T03:35:19.402Z,95839.94
2023-11-01T03:37:46.073Z,95847.91
2023-11-01T03:40:12.746Z,95835.06
2023-11-01T03:42:39.427Z,95840.66
2023-11-01T03:45:07.105Z,95832.38
2023-11-01T03:47:33.823Z,95832.09
2023-11-01T03:50:01.634Z,95824.16
2023-11-01T03:52:28.695Z,95823.88
2023-11-01T03:54:55.460Z,95825.81
2023-11-01T03:57:22.240Z,95826.16
2023-11-01T03:59:49.081Z,95826.47
2023-11-01T04:02:15.929Z,95817.13
2023-11-01T04:04:42.643Z,95809.19
2023-11-01T04:07:09.320Z,95801.13
2023-11-01T04:09:35.987Z,95807.50
2023-11-01T04:12:02.648Z,95805.31
2023-11-01T04:14:29.276Z,95812.19
2023-11-01T04:16:57.229Z,95799.66
2023-11-01T04:19:24.017Z,95803.19
2023-11-01T04:21:50.688Z,95797.41
2023-11-01T04:24:17.354Z,95797.13
2023-11-01T04:26:44.093Z,95796.94
2023-11-01T04:29:10.745Z,95797.50
2023-11-01T04:31:37.480Z,95789.56
2023-11-01T04:34:04.173Z,95783.16
2023-11-01T04:36:30.842Z,95788.50
2023-11-01T04:38:58.480Z,95783.75
2023-11-01T04:41:29.073Z,95783.75
2023-11-01T04:43:56.650Z,95782.69
2023-11-01T04:46:23.447Z,95780.03
2023-11-01T04:48:51.337Z,95772.59
2023-11-01T04:51:18.395Z,95769.41
2023-11-01T04:53:45.838Z,95764.38
2023-11-01T04:56:12.605Z,95759.53
2023-11-01T04:58:39.390Z,95757.69
2023-11-01T05:01:07.497Z,95765.69
2023-11-01T05:03:38.215Z,95756.88
2023-11-01T05:06:06.373Z,95757.13
2023-11-01T05:08:33.106Z,95745.09
2023-11-01T05:11:00.626Z,95751.25
2023-11-01T05:13:27.714Z,95748.88
2023-11-01T05:15:55.406Z,95747.63
2023-11-01T05:18:22.561Z,95750.31
2023-11-01T05:20:49.396Z,95747.88
2023-11-01T05:23:16.228Z,95742.81
2023-11-01T05:25:42.916Z,95745.75
2023-11-01T05:28:10.193Z,95744.16
2023-11-01T05:30:36.839Z,95744.41
2023-11-01T05:33:03.756Z,95749.19
2023-11-01T05:35:30.547Z,95749.25
2023-11-01T05:37:57.228Z,95754.09
2023-11-01T05:40:23.967Z,95749.31
2023-11-01T05:42:50.695Z,95743.72
2023-11-01T05:45:18.429Z,95752.00
2023-11-01T05:47:53.302Z,95749.59
2023-11-01T05:50:26.268Z,95743.44
2023-11-01T05:52:54.991Z,95745.03
2023-11-01T05:55:29.798Z,95750.06
2023-11-01T05:58:12.844Z,95749.56
2023-11-01T06:00:40.203Z,95750.84
2023-11-01T06:03:08.352Z,95751.91
2023-11-01T06:05:40.258Z,95759.91
2023-11-01T06:08:10.250Z,95744.97
2023-11-01T06:10:37.603Z,95743.34
2023-11-01T06:13:05.310Z,95760.66
2023-11-01T06:15:31.968Z,95751.34
2023-11-01T06:17:58.717Z,95753.47
2023-11-01T06:20:25.886Z,95748.69
2023-11-01T06:22:52.559Z,95752.63
2023-11-01T06:25:21.342Z,95758.78
2023-11-01T06:27:48.025Z,95747.63
2023-11-01T06:30:15.141Z,95754.53
2023-11-01T06:32:42.023Z,95752.69
2023-11-01T06:35:09.374Z,95751.81
2023-11-01T06:37:36.490Z,95756.53
2023-11-01T06:40:04.033Z,95749.66
2023-11-01T06:42:30.708Z,95753.63
2023-11-01T06:44:58.024Z,95765.59
2023-11-01T06:47:24.657Z,95762.31
2023-11-01T06:49:51.614Z,95747.31
2023-11-01T06:52:18.339Z,95750.19
2023-11-01T06:54:45.275Z,95739.19
2023-11-01T06:57:12.177Z,95744.75
2023-11-01T06:59:40.356Z,95736.47
2023-11-01T07:02:07.652Z,95727.47
2023-11-01T07:04:34.554Z,95729.56
2023-11-01T07:07:01.698Z,95725.78
2023-11-01T07:09:28.511Z,95725.66
2023-11-01T07:11:55.174Z,95730.91
2023-11-01T07:14:21.886Z,95725.78
2023-11-01T07:16:48.581Z,95721.22
2023-11-01T07:19:15.951Z,95718.94
2023-11-01T07:21:45.269Z,95711.25
2023-11-01T07:24:13.939Z,95711.00
2023-11-01T07:26:40.803Z,95700.06
2023-11-01T07:29:07.487Z,95702.00
2023-11-01T07:31:34.262Z,95701.75
2023-11-01T07:34:00.999Z,95703.16
2023-11-01T07:36:27.984Z,95695.47
2023-11-01T07:38:54.812Z,95695.09
2023-11-01T07:41:22.120Z,95691.38
2023-11-01T07:43:48.954Z,95684.94
2023-11-01T07:46:15.628Z,95672.50
2023-11-01T07:48:42.325Z,95674.00
2023-11-01T07:51:09.152Z,95670.84
2023-11-01T07:53:36.154Z,95652.41
2023-11-01T07:56:03.168Z,95655.00
2023-11-01T07:58:30.738Z,95649.75
2023-11-01T08:00:57.503Z,95641.88
2023-11-01T08:03:25.406Z,95646.53
2023-11-01T08:05:52.833Z,95640.66
2023-11-01T08:08:19.678Z,95634.03
2023-11-01T08:10:46.410Z,95633.88
2023-11-01T08:13:13.172Z,95625.19
2023-11-01T08:15:39.857Z,95629.16
2023-11-01T08:18:06.705Z,95624.75
2023-11-01T08:20:33.476Z,95622.09
2023-11-01T08:23:00.307Z,95622.25
2023-11-01T08:25:27.134Z,95616.63
2023-11-01T08:27:53.979Z,95615.41
2023-11-01T08:30:20.711Z,95611.34
2023-11-01T08:32:47.384Z,95603.81
2023-11-01T08:35:14.330Z,95601.44
2023-11-01T08:37:41.471Z,95606.22
2023-11-01T08:40:09.059Z,95591.34
2023-11-01T08:42:36.239Z,95586.44
2023-11-01T08:45:03.331Z,95585.50
2023-11-01T08:47:39.478Z,95585.09
2023-11-01T08:50:07.841Z,95580.19
2023-11-01T08:52:34.562Z,95577.97
2023-11-01T08:55:01.457Z,95575.63
2023-11-01T08:57:29.014Z,95576.94
2023-11-01T08:59:59.329Z,95578.25
2023-11-01T09:02:29.825Z,95583.25
2023-11-01T09:04:57.694Z,95574.00
2023-11-01T09:07:24.992Z,95575.91
2023-11-01T09:09:54.354Z,95570.41
2023-11-01T09:12:21.531Z,95571.97
2023-11-01T09:14:48.725Z,95569.44
2023-11-01T09:17:15.677Z,95567.81
2023-11-01T09:19:42.673Z,95565.81
2023-11-01T09:22:09.728Z,95557.50
2023-11-01T09:24:36.787Z,95558.56
2023-11-01T09:27:04.431Z,95550.72
2023-11-01T09:29:31.208Z,95536.91
2023-11-01T09:31:58.043Z,95533.88
2023-11-01T09:34:24.804Z,95536.47
2023-11-01T09:36:52.919Z,95532.66
2023-11-01T09:39:20.136Z,95525.72
2023-11-01T09:41:54.730Z,95524.22
2023-11-01T09:44:21.393Z,95517.53
2023-11-01T09:46:51.312Z,95523.84
2023-11-01T09:49:18.140Z,95523.31
2023-11-01T09:51:45.881Z,95524.63
2023-11-01T09:54:12.927Z,95519.47
2023-11-01T09:56:43.918Z,95525.00
2023-11-01T09:59:11.348Z,95507.41
2023-11-01T10:01:38.842Z,95506.84
2023-11-01T10:04:06.537Z,95505.22
2023-11-01T10:06:36.759Z,95498.25
2023-11-01T10:09:04.456Z,95492.06
2023-11-01T10:11:32.786Z,95481.41
2023-11-01T10:14:03.206Z,95474.41
2023-11-01T10:16:31.880Z,95465.31
2023-11-01T10:18:58.556Z,95459.59
2023-11-01T10:21:28.659Z,95460.53
2023-11-01T10:23:58.461Z,95462.06
2023-11-01T10:26:32.356Z,95462.34
2023-11-01T10:29:00.827Z,95459.06
2023-11-01T10:31:27.582Z,95450.56
2023-11-01T10:33:54.723Z,95443.44
2023-11-01T10:36:22.213Z,95438.81
2023-11-01T10:38:52.817Z,95428.97
2023-11-01T10:41:19.943Z,95418.16
2023-11-01T10:43:48.573Z,95414.75
2023-11-01T10:46:16.972Z,95397.97
2023-11-01T10:48:46.132Z,95392.13
2023-11-01T10:51:13.055Z,95394.84
2023-11-01T10:53:41.055Z,95390.31
2023-11-01T10:56:08.562Z,95385.38
2023-11-01T10:58:38.762Z,95383.00
2023-11-01T11:01:05.395Z,95377.50
2023-11-01T11:03:55.205Z,95379.09
2023-11-01T11:06:34.997Z,95366.75
2023-11-01T11:09:23.520Z,95365.78
2023-11-01T11:12:18.619Z,95365.72
2023-11-01T11:14:49.841Z,95350.63
2023-11-01T11:17:20.575Z,95359.66
2023-11-01T11:20:13.387Z,95354.94
2023-11-01T11:23:14.299Z,95346.84
2023-11-01T11:25:50.994Z,95337.88
2023-11-01T11:28:23.484Z,95335.41
2023-11-01T11:31:31.451Z,95331.47
2023-11-01T11:34:00.911Z,95340.16
2023-11-01T11:36:29.870Z,95339.38
2023-11-01T11:39:03.164Z,95336.19
2023-11-01T11:41:47.603Z,95336.88
2023-11-01T11:44:20.973Z,95337.63
2023-11-01T11:47:00.684Z,95330.31
2023-11-01T11:49:30.243Z,95339.25
2023-11-01T11:51:59.560Z,95330.88
2023-11-01T11:54:33.679Z,95335.75
2023-11-01T11:57:02.743Z,95327.28
2023-11-01T11:59:30.062Z,95328.22
2023-11-01T12:02:06.173Z,95318.94
2023-11-01T12:04:38.620Z,95307.22
2023-11-01T12:07:07.753Z,95306.69
2023-11-01T12:09:34.707Z,95314.50
2023-11-01T12:12:12.983Z,95302.75
2023-11-01T12:14:41.133Z,95297.72
2023-11-01T12:17:08.464Z,95294.28
2023-11-01T12:19:44.950Z,95298.25
2023-11-01T12:22:11.666Z,95293.72
2023-11-01T12:24:38.178Z,95277.63
2023-11-01T12:27:14.789Z,95270.91
2023-11-01T12:29:51.260Z,95265.56
2023-11-01T12:32:20.010Z,95267.84
2023-11-01T12:34:49.799Z,95262.72
2023-11-01T12:37:18.457Z,95271.31
2023-11-01T12:40:11.596Z,95266.78
2023-11-01T12:42:41.454Z,95271.91
2023-11-01T12:45:09.785Z,95266.25
2023-11-01T12:47:53.352Z,95265.00
2023-11-01T12:50:21.603Z,95262.63
2023-11-01T12:52:49.816Z,95265.97
2023-11-01T12:55:17.251Z,95266.78
2023-11-01T12:57:48.942Z,95273.25
2023-11-01T13:00:17.377Z,95263.03
2023-11-01T13:02:44.952Z,95262.31
2023-11-01T13:05:12.955Z,95256.75
2023-11-01T13:07:41.270Z,95246.00
2023-11-01T13:10:11.007Z,95248.03
2023-11-01T13:12:43.219Z,95249.66
2023-11-01T13:15:10.431Z,95245.75
2023-11-01T13:17:37.278Z,95237.31
2023-11-01T13:20:04.026Z,95239.22
2023-11-01T13:22:30.682Z,95242.28
2023-11-01T13:24:57.463Z,95236.88
2023-11-01T13:27:23.965Z,95240.63
2023-11-01T13:29:52.058Z,95233.03
2023-11-01T13:32:18.892Z,95229.03
2023-11-01T13:34:45.431Z,95236.34
2023-11-01T13:37:15.021Z,95237.28
2023-11-01T13:39:41.823Z,95241.44
2023-11-01T13:42:08.487Z,95233.78
2023-11-01T13:44:35.404Z,95234.09
2023-11-01T13:47:02.598Z,95227.47
2023-11-01T13:49:29.365Z,95229.75
2023-11-01T13:51:56.089Z,95229.16
2023-11-01T13:54:22.724Z,95220.63
2023-11-01T13:56:49.414Z,95224.28
2023-11-01T13:59:16.167Z,95225.69
2023-11-01T14:01:42.861Z,95223.53
2023-11-01T14:04:09.696Z,95220.50
2023-11-01T14:06:36.299Z,95217.72
2023-11-01T14:09:04.844Z,95213.75
2023-11-01T14:11:31.508Z,95205.31
2023-11-01T14:13:58.180Z,95213.19
2023-11-01T14:16:24.968Z,95203.22
2023-11-01T14:18:51.621Z,95202.81
2023-11-01T14:21:18.529Z,95196.50
2023-11-01T14:23:47.916Z,95197.81
2023-11-01T14:26:14.889Z,95198.56
2023-11-01T14:28:42.602Z,95194.84
2023-11-01T14:31:09.689Z,95187.06
2023-11-01T14:33:36.941Z,95185.31
2023-11-01T14:36:08.419Z,95184.63
2023-11-01T14:38:35.616Z,95179.03
2023-11-01T14:41:02.659Z,95182.84
2023-11-01T14:43:29.363Z,95178.94
2023-11-01T14:45:56.150Z,95173.63
2023-11-01T14:48:22.989Z,95183.41
2023-11-01T14:50:49.879Z,95175.38
2023-11-01T14:53:16.695Z,95176.75
2023-11-01T14:55:43.408Z,95176.59
2023-11-01T14:58:10.088Z,95174.38
2023-11-01T15:00:36.729Z,95174.41
2023-11-01T15:03:03.607Z,95183.44
2023-11-01T15:05:31.644Z,95171.47
2023-11-01T15:07:58.373Z,95174.31
2023-11-01T15:10:26.628Z,95163.56
2023-11-01T15:12:53.729Z,95159.69
2023-11-01T15:15:20.596Z,95160.72
2023-11-01T15:17:51.052Z,95150.28
2023-11-01T15:20:17.799Z,95153.31
2023-11-01T15:22:44.743Z,95145.81
2023-11-01T15:25:12.407Z,95151.78
2023-11-01T15:27:39.071Z,95147.06
2023-11-01T15:30:06.639Z,95138.84
2023-11-01T15:32:33.396Z,95145.84
2023-11-01T15:35:00.426Z,95142.81
2023-11-01T15:37:28.225Z,95136.97
2023-11-01T15:39:55.146Z,95151.03
2023-11-01T15:42:23.278Z,95143.63
2023-11-01T15:44:50.033Z,95143.84
2023-11-01T15:47:16.786Z,95132.28
2023-11-01T15:49:43.442Z,95137.13
2023-11-01T15:52:10.100Z,95120.50
2023-11-01T15:54:38.228Z,95134.00
2023-11-01T15:57:07.170Z,95127.66
2023-11-01T15:59:33.856Z,95129.25
2023-11-01T16:02:00.637Z,95132.63
2023-11-01T16:04:27.742Z,95130.34
2023-11-01T16:06:54.627Z,95124.53
2023-11-01T16:09:21.275Z,95120.91
2023-11-01T16:11:48.080Z,95121.09
2023-11-01T16:14:16.089Z,95121.56
2023-11-01T16:16:45.342Z,95116.59
2023-11-01T16:19:12.929Z,95120.38
2023-11-01T16:21:44.731Z,95112.41
2023-11-01T16:24:13.315Z,95121.81
2023-11-01T16:26:40.494Z,95118.97
2023-11-01T16:29:07.265Z,95121.34
2023-11-01T16:31:34.211Z,95119.13
2023-11-01T16:34:00.977Z,95115.19
2023-11-01T16:36:27.764Z,95115.84
2023-11-01T16:38:54.526Z,95116.06
2023-11-01T16:41:21.286Z,95115.34
2023-11-01T16:43:47.939Z,95114.84
2023-11-01T16:46:17.254Z,95115.50
2023-11-01T16:48:44.514Z,95115.66
2023-11-01T16:51:11.605Z,95121.91
2023-11-01T16:53:38.677Z,95126.84
2023-11-01T16:56:05.567Z,95125.72
2023-11-01T16:58:32.526Z,95121.47
2023-11-01T17:00:59.220Z,95121.78
2023-11-01T17:03:26.096Z,95112.47
2023-11-01T17:05:52.971Z,95112.00
2023-11-01T17:08:19.692Z,95107.72
2023-11-01T17:10:46.336Z,95103.66
2023-11-01T17:13:13.109Z,95098.94
2023-11-01T17:15:41.700Z,95102.75
2023-11-01T17:18:08.547Z,95102.81
2023-11-01T17:20:35.275Z,95106.97
2023-11-01T17:23:03.849Z,95113.28
2023-11-01T17:25:43.378Z,95119.91
2023-11-01T17:28:21.860Z,95130.09
2023-11-01T17:30:53.478Z,95118.56
2023-11-01T17:33:29.225Z,95133.88
2023-11-01T17:35:56.480Z,95119.53
2023-11-01T17:38:41.999Z,95122.53
2023-11-01T17:41:10.319Z,95113.53
2023-11-01T17:43:51.786Z,95110.53
2023-11-01T17:46:19.605Z,95115.25
2023-11-01T17:48:47.009Z,95124.59
2023-11-01T17:51:17.453Z,95127.47
2023-11-01T17:53:44.191Z,95122.91
2023-11-01T17:56:12.163Z,95121.84
2023-11-01T17:58:38.999Z,95113.16
2023-11-01T18:01:09.779Z,95117.56
2023-11-01T18:03:37.710Z,95113.75
2023-11-01T18:06:04.955Z,95126.91
2023-11-01T18:08:33.726Z,95124.84
2023-11-01T18:11:09.102Z,95114.13
2023-11-01T18:13:37.034Z,95106.88
2023-11-01T18:16:06.547Z,95116.00
2023-11-01T18:18:49.728Z,95110.31
2023-11-01T18:21:28.421Z,95114.59
2023-11-01T18:24:03.252Z,95114.75
2023-11-01T18:26:31.587Z,95099.94
2023-11-01T18:29:09.855Z,95100.56
2023-11-01T18:31:48.070Z,95099.63
2023-11-01T18:34:16.875Z,95102.47
2023-11-01T18:36:45.397Z,95109.72
2023-11-01T18:39:12.616Z,95105.44
2023-11-01T18:41:43.891Z,95111.13
2023-11-01T18:44:24.939Z,95101.19
2023-11-01T18:46:52.265Z,95109.84
2023-11-01T18:49:49.937Z,95104.81
2023-11-01T18:52:18.270Z,95110.34
2023-11-01T18:54:47.967Z,95115.06
2023-11-01T18:57:24.425Z,95122.16
2023-11-01T18:59:51.212Z,95123.59
2023-11-01T19:02:36.045Z,95129.25
2023-11-01T19:05:06.229Z,95128.81
2023-11-01T19:07:43.415Z,95128.97
2023-11-01T19:10:12.824Z,95131.16
2023-11-01T19:12:39.704Z,95140.34
2023-11-01T19:15:08.833Z,95140.78
2023-11-01T19:17:40.433Z,95145.66
2023-11-01T19:20:07.358Z,95142.50
2023-11-01T19:22:34.053Z,95147.88
2023-11-01T19:25:00.756Z,95148.66
2023-11-01T19:27:27.437Z,95144.56
2023-11-01T19:29:54.111Z,95139.34
2023-11-01T19:32:21.305Z,95137.47
2023-11-01T19:34:47.828Z,95130.06
2023-11-01T19:37:14.505Z,95128.00
2023-11-01T19:39:42.099Z,95133.69
2023-11-01T19:42:09.995Z,95128.31
2023-11-01T19:44:36.791Z,95131.66
2023-11-01T19:47:04.662Z,95131.81
2023-11-01T19:49:31.276Z,95129.72
2023-11-01T19:51:57.937Z,95126.75
2023-11-01T19:54:26.164Z,95125.94
2023-11-01T19:56:52.925Z,95122.31
2023-11-01T19:59:19.620Z,95108.78
2023-11-01T20:01:46.671Z,95109.25
2023-11-01T20:04:13.354Z,95119.66
2023-11-01T20:06:40.007Z,95119.34
2023-11-01T20:09:08.603Z,95112.22
2023-11-01T20:11:35.264Z,95117.13
2023-11-01T20:14:02.407Z,95118.56
2023-11-01T20:16:31.124Z,95103.72
2023-11-01T20:18:58.205Z,95105.47
2023-11-01T20:21:24.880Z,95103.09
2023-11-01T20:23:51.742Z,95106.84
2023-11-01T20:26:18.600Z,95106.84
2023-11-01T20:28:45.267Z,95101.34
2023-11-01T20:31:12.024Z,95094.59
2023-11-01T20:33:38.918Z,95097.38
2023-11-01T20:36:06.215Z,95100.25
2023-11-01T20:38:34.126Z,95102.28
2023-11-01T20:41:00.851Z,95098.66
2023-11-01T20:43:29.812Z,95084.81
2023-11-01T20:45:56.582Z,95087.47
2023-11-01T20:48:23.400Z,95077.53
2023-11-01T20:50:50.146Z,95077.06
2023-11-01T20:53:17.708Z,95081.97
2023-11-01T20:55:44.876Z,95078.66
2023-11-01T20:58:11.537Z,95080.06
2023-11-01T21:00:38.333Z,95063.66
2023-11-01T21:03:05.962Z,95059.25
2023-11-01T21:05:34.757Z,95053.41
2023-11-01T21:08:01.791Z,95054.19
2023-11-01T21:10:30.132Z,95045.38
2023-11-01T21:12:57.051Z,95043.16
2023-11-01T21:15:23.868Z,95041.88
2023-11-01T21:17:51.283Z,95043.47
2023-11-01T21:20:18.222Z,95038.09
2023-11-01T21:22:44.933Z,95037.78
2023-11-01T21:25:12.491Z,95040.00
2023-11-01T21:27:39.118Z,95044.41
2023-11-01T21:32:33.850Z,95044.91
2023-11-01T21:35:02.795Z,95037.31
2023-11-01T21:37:29.421Z,95037.63
2023-11-01T21:39:56.287Z,95042.19
2023-11-01T21:42:24.685Z,95030.06
2023-11-01T21:44:51.632Z,95034.50
2023-11-01T21:47:39.937Z,95029.59
2023-11-01T21:50:18.787Z,95038.91
2023-11-01T21:52:45.423Z,95033.88
2023-11-01T21:55:51.108Z,95028.63
2023-11-01T21:58:25.560Z,95023.16
2023-11-01T22:00:53.094Z,95022.34
2023-11-01T22:03:33.987Z,95019.19
2023-11-01T22:06:05.249Z,95019.78
2023-11-01T22:09:05.397Z,95030.31
2023-11-01T22:11:34.762Z,95023.53
2023-11-01T22:14:06.509Z,95019.41
2023-11-01T22:16:34.917Z,95012.03
2023-11-01T22:19:18.682Z,95009.69
2023-11-01T22:21:45.908Z,95022.91
2023-11-01T22:24:13.239Z,95010.63
2023-11-01T22:26:44.249Z,95020.88
2023-11-01T22:29:19.580Z,95015.69
2023-11-01T22:31:53.720Z,95007.50
2023-11-01T22:34:23.531Z,95003.09
2023-11-01T22:36:52.427Z,95006.56
2023-11-01T22:39:43.484Z,94997.91
2023-11-01T22:42:12.398Z,94989.41
2023-11-01T22:44:39.822Z,94994.59
2023-11-01T22:47:06.574Z,94996.50
2023-11-01T22:49:33.338Z,94998.84
2023-11-01T22:52:01.880Z,95002.47
2023-11-01T22:54:29.163Z,95003.25
2023-11-01T22:56:56.209Z,95000.44
2023-11-01T22:59:22.968Z,94993.19
2023-11-01T23:01:51.208Z,94995.88
2023-11-01T23:04:20.876Z,94990.66
2023-11-01T23:06:48.513Z,94992.69
2023-11-01T23:09:15.682Z,94985.91
2023-11-01T23:11:42.596Z,94977.72
2023-11-01T23:14:10.376Z,94979.25
2023-11-01T23:16:41.034Z,94970.91
2023-11-01T23:19:09.322Z,94972.03
2023-11-01T23:21:36.941Z,94966.66
2023-11-01T23:24:11.429Z,94958.94
2023-11-01T23:26:38.026Z,94953.13
2023-11-01T23:29:14.118Z,94953.59
2023-11-01T23:31:47.658Z,94947.31
2023-11-01T23:34:39.872Z,94954.06
2023-11-01T23:37:36.557Z,94945.44
2023-11-01T23:40:08.530Z,94946.34
2023-11-01T23:42:35.414Z,94933.44
2023-11-01T23:45:26.476Z,94929.19
2023-11-01T23:47:54.406Z,94927.13
2023-11-01T23:50:38.859Z,94924.94
2023-11-01T23:53:07.567Z,94925.09
2023-11-01T23:55:34.387Z,94928.56
2023-11-01T23:58:01.761Z,94939.59
